Time;durP1;ratioP1;P1;durP2;ratioP2;P2;SDS_P1;SDS_P2;PMS_P1;PMS_P2;Temp;Humidity;BMP_temperature;BMP_pressure;BME280_temperature;BME280_humidity;BME280_pressure;Samples;Min_cycle;Max_cycle;Signal;HPM_P1;HPM_P2
2021/03/08 00:00:50;;;;;;;20.53;13.17;;;2.10;75.50;;;1.56;76.63;98424.25;5042369;28;20635;-67
2021/03/08 00:03:18;;;;;;;25.10;15.07;;;2.10;75.90;;;1.61;76.12;98424.13;5042890;28;20715;-67
2021/03/08 00:05:46;;;;;;;23.83;15.37;;;2.10;75.40;;;1.55;76.69;98421.75;5038124;28;20706;-67
2021/03/08 00:08:17;;;;;;;21.83;13.37;;;2.00;76.10;;;1.57;75.93;98425.94;5037487;28;21041;-67
2021/03/08 00:10:45;;;;;;;23.10;14.20;;;2.10;76.00;;;1.55;75.66;98425.16;5039051;28;20781;-67
2021/03/08 00:13:14;;;;;;;23.23;14.67;;;2.00;75.70;;;1.49;76.18;98435.59;5038532;28;20676;-67
2021/03/08 00:15:41;;;;;;;23.57;14.57;;;1.90;75.70;;;1.44;76.79;98434.88;5036893;28;20633;-67
2021/03/08 00:18:09;;;;;;;20.77;13.20;;;2.00;76.40;;;1.41;76.09;98436.66;5038633;28;21184;-67
2021/03/08 00:20:37;;;;;;;23.23;14.67;;;1.90;76.40;;;1.35;76.21;98439.41;5040723;28;20759;-67
2021/03/08 00:23:04;;;;;;;21.70;14.67;;;1.90;75.80;;;1.34;76.09;98436.88;5037793;28;20722;-67
2021/03/08 00:25:34;;;;;;;20.80;13.13;;;1.90;76.40;;;1.33;76.39;98433.47;5038553;28;21534;-67
2021/03/08 00:28:02;;;;;;;20.40;13.70;;;1.80;75.70;;;1.23;76.25;98433.75;5038134;28;20640;-67
2021/03/08 00:30:30;;;;;;;22.40;14.07;;;1.80;75.60;;;1.17;75.77;98444.19;5039635;28;20710;-67
2021/03/08 00:32:58;;;;;;;20.73;13.43;;;1.70;75.50;;;1.07;76.43;98442.75;5036801;28;20644;-67
2021/03/08 00:35:26;;;;;;;21.80;14.33;;;1.60;75.70;;;1.02;76.13;98435.19;5038693;28;20659;-67
2021/03/08 00:37:54;;;;;;;24.40;14.83;;;1.60;75.90;;;1.07;76.23;98427.34;5036543;28;20686;-67
2021/03/08 00:40:22;;;;;;;23.10;13.93;;;1.60;76.20;;;1.01;76.94;98435.22;5035484;28;20757;-67
2021/03/08 00:42:50;;;;;;;20.77;13.43;;;1.60;76.60;;;1.04;76.75;98433.41;5038215;28;20723;-67
2021/03/08 00:45:20;;;;;;;21.53;13.70;;;1.50;76.50;;;0.99;77.65;98434.38;5036172;28;21059;-67
2021/03/08 00:47:57;;;;;;;25.30;14.77;;;1.50;77.40;;;1.00;77.32;98425.81;5056550;28;20632;-67
2021/03/08 00:50:29;;;;;;;21.27;14.60;;;1.50;77.60;;;0.89;76.27;98429.53;5037311;28;21353;-67
2021/03/08 00:52:57;;;;;;;20.30;13.17;;;1.40;76.60;;;0.76;75.69;98423.88;5035578;28;20631;-67
2021/03/08 00:55:30;;;;;;;20.13;13.00;;;1.30;75.50;;;0.66;75.86;98417.28;5038060;28;21421;-67
2021/03/08 00:57:59;;;;;;;24.87;14.53;;;1.20;75.70;;;0.68;76.68;98418.09;5038102;28;20647;-67
2021/03/08 01:00:29;;;;;;;23.10;14.17;;;1.20;76.30;;;0.70;76.99;98429.16;5037960;28;20757;-67
2021/03/08 01:03:05;;;;;;;21.70;13.00;;;1.20;76.60;;;0.69;77.13;98422.34;5033937;28;20642;-67
2021/03/08 01:05:34;;;;;;;24.63;14.80;;;1.20;77.30;;;0.70;77.55;98421.44;5035152;28;21441;-67
2021/03/08 01:08:10;;;;;;;25.63;15.37;;;1.20;77.80;;;0.73;77.38;98421.38;5037920;28;20639;-67
2021/03/08 01:10:41;;;;;;;26.27;15.80;;;1.30;78.00;;;0.69;77.62;98426.63;5051845;28;20636;-67
2021/03/08 01:13:16;;;;;;;25.23;14.67;;;1.20;78.00;;;0.59;77.98;98431.13;5036383;28;21124;-67
2021/03/08 01:15:46;;;;;;;29.03;15.90;;;1.10;78.30;;;0.54;77.92;98415.03;5038328;28;20624;-67
2021/03/08 01:18:15;;;;;;;24.67;14.93;;;1.10;78.40;;;0.57;77.32;98414.09;5035459;28;20767;-67
2021/03/08 01:20:43;;;;;;;20.73;13.30;;;1.10;78.90;;;0.52;77.70;98410.78;5033833;28;20691;-67
2021/03/08 01:23:11;;;;;;;66.93;27.27;;;1.10;78.20;;;0.49;78.09;98409.13;5036909;28;20691;-67
2021/03/08 01:25:40;;;;;;;38.10;20.40;;;1.00;78.50;;;0.50;78.13;98415.97;5036966;28;20729;-67
2021/03/08 01:28:08;;;;;;;34.03;18.57;;;1.00;78.70;;;0.46;78.40;98412.69;5035558;28;20644;-67
2021/03/08 01:30:39;;;;;;;26.23;15.80;;;1.00;79.00;;;0.42;78.47;98413.63;5052630;28;20620;-67
2021/03/08 01:33:07;;;;;;;26.17;14.67;;;0.90;79.90;;;0.38;77.34;98414.59;5037695;28;20663;-67
2021/03/08 01:35:37;;;;;;;22.33;14.77;;;0.90;77.80;;;0.30;76.97;98414.75;5037259;28;20669;-67
2021/03/08 01:38:05;;;;;;;20.87;14.50;;;0.80;77.20;;;0.32;77.72;98409.59;5036499;28;20637;-67
2021/03/08 01:40:38;;;;;;;23.77;15.10;;;0.80;78.00;;;0.35;77.70;98406.97;5033895;28;20687;-67
2021/03/08 01:43:07;;;;;;;27.30;15.50;;;0.80;78.30;;;0.30;77.96;98411.34;5038633;28;20714;-67
2021/03/08 01:45:36;;;;;;;25.63;14.00;;;0.80;78.70;;;0.29;78.44;98410.50;5034239;28;21095;-67
2021/03/08 01:48:04;;;;;;;25.57;15.10;;;0.80;79.30;;;0.30;78.62;98419.88;5034888;28;20672;-67
2021/03/08 01:50:36;;;;;;;27.73;15.40;;;0.80;79.70;;;0.33;79.13;98411.25;5040940;28;20623;-67
2021/03/08 01:53:06;;;;;;;22.07;14.40;;;0.80;80.20;;;0.28;78.34;98411.38;5035495;28;21269;-67
2021/03/08 01:55:34;;;;;;;24.23;14.00;;;0.80;79.40;;;0.32;77.98;98404.47;5035142;28;20763;-67
2021/03/08 01:58:03;;;;;;;22.37;14.43;;;0.80;79.30;;;0.32;78.60;98404.47;5036277;28;20671;-67
2021/03/08 02:00:31;;;;;;;20.10;13.60;;;0.80;79.60;;;0.27;77.54;98406.28;5033814;28;20754;-67
2021/03/08 02:03:00;;;;;;;21.90;14.23;;;0.80;79.60;;;0.21;77.63;98401.28;5038837;28;21448;-67
2021/03/08 02:05:30;;;;;;;22.47;14.07;;;0.70;78.30;;;0.18;77.47;98409.06;5033773;28;20977;-67
2021/03/08 02:08:03;;;;;;;21.33;13.20;;;0.70;78.20;;;0.17;78.42;98408.22;5040656;28;20656;-67
2021/03/08 02:10:35;;;;;;;24.87;12.43;;;0.70;79.10;;;0.16;78.39;98409.09;5036098;28;20682;-67
2021/03/08 02:13:30;;;;;;;22.47;13.50;;;0.70;79.40;;;0.14;78.21;98403.16;5036138;28;22414;-67
2021/03/08 02:16:04;;;;;;;18.93;12.37;;;0.70;79.20;;;0.17;78.17;98402.25;5036892;28;20680;-67
2021/03/08 02:18:43;;;;;;;24.07;13.30;;;0.70;79.30;;;0.11;78.42;98397.28;5036733;28;20686;-67
2021/03/08 02:21:34;;;;;;;21.07;13.07;;;0.60;79.40;;;0.10;78.44;98398.13;5036335;28;20749;-67
2021/03/08 02:25:00;;;;;;;21.53;13.70;;;0.60;79.60;;;0.13;78.50;98395.50;5035972;28;20616;-67
2021/03/08 02:27:58;;;;;;;22.07;13.33;;;0.60;79.80;;;0.08;78.87;98384.53;5036992;28;20721;-67
2021/03/08 02:30:45;;;;;;;18.37;12.80;;;0.60;80.10;;;0.03;78.87;98392.31;5035088;28;20647;-68
2021/03/08 02:33:21;;;;;;;25.27;13.80;;;0.60;80.20;;;0.03;78.87;98391.44;5034883;28;20664;-68
2021/03/08 02:35:55;;;;;;;23.07;13.90;;;0.50;80.50;;;0.01;78.44;98391.47;5033501;28;20663;-67
2021/03/08 02:38:28;;;;;;;19.20;12.50;;;0.50;80.00;;;-0.16;76.92;98390.19;5035154;28;20648;-67
2021/03/08 02:41:01;;;;;;;20.80;12.43;;;0.40;78.60;;;-0.29;76.91;98380.25;5033426;28;20767;-67
2021/03/08 02:43:33;;;;;;;26.10;13.03;;;0.30;77.40;;;-0.34;77.40;98375.22;5032860;28;20668;-67
2021/03/08 02:46:08;;;;;;;24.27;13.40;;;0.20;77.90;;;-0.35;77.36;98370.13;5036255;28;21546;-67
2021/03/08 02:48:41;;;;;;;20.10;12.33;;;0.20;78.40;;;-0.37;78.01;98379.56;5035087;28;20640;-67
2021/03/08 02:51:10;;;;;;;24.20;14.17;;;0.20;78.80;;;-0.36;78.42;98382.09;5035728;28;20637;-67
2021/03/08 02:53:41;;;;;;;23.30;12.77;;;0.20;79.40;;;-0.34;78.46;98380.34;5034813;28;20755;-67
2021/03/08 02:56:15;;;;;;;22.20;14.33;;;0.20;79.60;;;-0.33;78.44;98376.91;5035714;28;20687;-67
2021/03/08 02:58:48;;;;;;;21.57;13.73;;;0.20;79.80;;;-0.34;78.61;98374.38;5037749;28;20645;-67
2021/03/08 03:01:19;;;;;;;20.30;13.17;;;0.20;80.50;;;-0.30;78.92;98379.41;5036705;28;20674;-67
2021/03/08 03:03:51;;;;;;;21.17;13.80;;;0.20;80.70;;;-0.34;79.33;98382.91;5036993;28;20632;-67
2021/03/08 03:06:20;;;;;;;21.20;13.53;;;0.20;80.90;;;-0.33;79.12;98387.16;5035199;28;21039;-67
2021/03/08 03:08:49;;;;;;;19.83;13.60;;;0.20;81.30;;;-0.33;79.65;98382.03;5034516;28;20668;-67
2021/03/08 03:11:17;;;;;;;21.80;13.67;;;0.20;81.40;;;-0.36;79.12;98376.97;5034036;28;20664;-67
2021/03/08 03:13:48;;;;;;;21.07;12.47;;;0.20;81.20;;;-0.32;79.03;98385.44;5034519;28;20673;-67
2021/03/08 03:16:18;;;;;;;24.60;13.93;;;0.20;81.10;;;-0.29;79.45;98391.31;5034686;28;20749;-67
2021/03/08 03:18:53;;;;;;;23.87;14.37;;;0.20;81.50;;;-0.29;79.37;98396.44;5035062;28;20214;-67
2021/03/08 03:21:25;;;;;;;19.90;12.60;;;0.30;81.60;;;-0.30;79.33;98402.47;5035272;28;20810;-67
2021/03/08 03:23:53;;;;;;;21.40;13.53;;;0.20;81.30;;;-0.34;78.31;98400.81;5034096;28;20632;-67
2021/03/08 03:26:22;;;;;;;20.80;13.60;;;0.20;80.00;;;-0.37;78.34;98403.44;5035059;28;20676;-67
2021/03/08 03:28:51;;;;;;;19.40;12.30;;;0.20;79.90;;;-0.35;78.21;98398.28;5034954;28;21261;-67
2021/03/08 03:31:32;;;;;;;23.83;14.00;;;0.20;79.60;;;-0.36;78.58;98406.84;5034672;28;20639;-67
2021/03/08 03:34:01;;;;;;;18.63;12.63;;;0.20;80.10;;;-0.37;78.70;98406.00;5036490;28;20681;-67
2021/03/08 03:36:32;;;;;;;20.50;12.95;;;0.20;80.30;;;-0.39;78.34;98400.09;5035119;28;20761;-67
2021/03/08 03:39:02;;;;;;;20.13;12.57;;;0.10;79.80;;;-0.45;78.74;98399.38;5033548;28;20275;-67
2021/03/08 03:41:29;;;;;;;20.53;13.10;;;0.10;80.20;;;-0.44;78.76;98399.34;5034284;28;20794;-67
2021/03/08 03:43:57;;;;;;;27.20;13.77;;;0.10;80.40;;;-0.46;78.95;98406.19;5035604;28;20751;-67
2021/03/08 03:46:25;;;;;;;22.70;14.20;;;0.10;80.80;;;-0.44;79.31;98412.16;5033760;28;20722;-67
2021/03/08 03:48:53;;;;;;;22.03;13.20;;;0.10;81.10;;;-0.45;79.04;98418.13;5034843;28;20999;-67
2021/03/08 03:51:22;;;;;;;25.90;13.32;;;0.10;80.90;;;-0.44;79.16;98413.84;5049089;28;20645;-67
2021/03/08 03:53:50;;;;;;;19.83;11.97;;;0.10;80.90;;;-0.47;78.10;98428.44;5032633;28;20233;-67
2021/03/08 03:56:22;;;;;;;19.60;12.47;;;0.10;80.70;;;-0.62;77.79;98421.88;5035108;28;21191;-67
2021/03/08 03:58:54;;;;;;;20.13;13.40;;;0.00;78.80;;;-0.63;78.42;98429.59;5033688;28;20978;-67
2021/03/08 04:01:26;;;;;;;23.57;14.23;;;0.00;79.80;;;-0.59;79.21;98431.25;5032104;28;20672;-67
2021/03/08 04:04:01;;;;;;;24.00;13.27;;;0.00;80.60;;;-0.56;78.87;98434.56;5031542;28;21061;-67
2021/03/08 04:06:34;;;;;;;22.30;12.60;;;0.00;80.80;;;-0.61;78.46;98433.00;5034146;28;20292;-67
2021/03/08 04:09:05;;;;;;;22.30;13.27;;;-0.10;80.10;;;-0.62;78.31;98444.09;5034186;28;20664;-67
2021/03/08 04:11:34;;;;;;;25.00;12.90;;;-0.10;79.70;;;-0.62;78.17;98438.97;5032448;28;20641;-67
2021/03/08 04:14:03;;;;;;;21.52;12.95;;;-0.10;80.60;;;-0.64;78.49;98443.28;5031015;28;20644;-67
2021/03/08 04:16:32;;;;;;;27.95;13.57;;;-0.10;80.00;;;-0.69;78.02;98442.50;5036456;28;20210;-67
2021/03/08 04:19:03;;;;;;;24.15;13.05;;;-0.10;80.30;;;-0.73;78.08;98444.28;5032784;28;20304;-67
2021/03/08 04:21:35;;;;;;;24.23;13.93;;;-0.10;79.40;;;-0.69;78.15;98439.97;5035403;28;20600;-67
2021/03/08 04:24:04;;;;;;;20.10;12.57;;;-0.10;79.60;;;-0.68;78.65;98445.03;5035057;28;20683;-67
2021/03/08 04:26:32;;;;;;;21.90;13.43;;;-0.10;80.00;;;-0.67;78.83;98446.75;5033742;28;20221;-67
2021/03/08 04:29:00;;;;;;;22.43;13.67;;;-0.10;80.40;;;-0.62;78.99;98456.91;5033254;28;20669;-67
2021/03/08 04:31:28;;;;;;;17.63;11.87;;;-0.10;81.50;;;-0.56;78.47;98451.66;5033534;28;20764;-67
2021/03/08 04:33:58;;;;;;;21.63;14.88;;;0.00;80.50;;;-0.49;78.16;98448.13;5032998;28;20754;-67
2021/03/08 04:36:28;;;;;;;20.23;13.00;;;0.10;80.20;;;-0.47;78.50;98446.38;5034922;28;20295;-67
2021/03/08 04:38:56;;;;;;;22.30;12.93;;;0.00;80.10;;;-0.45;78.01;98450.59;5035068;28;21078;-67
2021/03/08 04:41:26;;;;;;;23.75;13.23;;;0.10;80.30;;;-0.41;78.38;98454.75;5035975;28;20756;-67
2021/03/08 04:43:55;;;;;;;19.00;11.23;;;0.10;80.20;;;-0.46;78.55;98454.84;5035915;28;20824;-67
2021/03/08 04:46:24;;;;;;;19.27;12.90;;;0.10;80.40;;;-0.45;78.93;98459.09;5036049;28;21240;-67
2021/03/08 04:48:54;;;;;;;18.33;11.90;;;0.10;80.60;;;-0.46;78.17;98459.13;5035954;28;20710;-67
2021/03/08 04:51:22;;;;;;;20.42;12.90;;;0.10;80.80;;;-0.49;77.87;98466.88;5037195;28;20624;-67
2021/03/08 04:53:52;;;;;;;18.07;11.80;;;0.10;79.50;;;-0.50;78.06;98467.75;5037198;28;20206;-67
2021/03/08 04:56:33;;;;;;;19.60;13.13;;;0.10;79.40;;;-0.47;77.59;98470.25;5036383;28;20651;-67
2021/03/08 04:59:02;;;;;;;21.00;12.37;;;0.10;79.30;;;-0.53;77.48;98466.97;5036545;28;20826;-67
2021/03/08 05:01:34;;;;;;;17.97;12.07;;;0.00;78.60;;;-0.65;76.72;98457.78;5036028;28;20652;-67
2021/03/08 05:04:07;;;;;;;24.17;13.77;;;-0.10;77.60;;;-0.78;76.27;98468.31;5036926;28;20695;-67
2021/03/08 05:06:39;;;;;;;20.23;11.77;;;-0.20;76.90;;;-0.76;76.41;98479.34;5036102;28;21202;-67
2021/03/08 05:09:11;;;;;;;21.47;13.97;;;-0.20;77.20;;;-0.79;76.84;98481.97;5036094;28;20731;-67
2021/03/08 05:11:41;;;;;;;22.70;12.52;;;-0.20;77.60;;;-0.82;77.34;98482.03;5035268;28;20730;-67
2021/03/08 05:14:13;;;;;;;20.45;12.98;;;-0.20;78.40;;;-0.86;77.45;98485.50;5034444;28;20293;-67
2021/03/08 05:16:44;;;;;;;20.40;12.60;;;-0.30;78.10;;;-0.88;76.91;98482.13;5037257;28;20657;-67
2021/03/08 05:19:13;;;;;;;21.50;12.95;;;-0.30;77.90;;;-0.87;77.19;98486.38;5036268;28;20653;-67
2021/03/08 05:21:42;;;;;;;21.40;13.02;;;-0.30;78.70;;;-0.87;77.39;98483.81;5034742;28;20698;-67
2021/03/08 05:24:12;;;;;;;22.60;12.57;;;-0.30;78.40;;;-0.85;77.28;98493.16;5038268;28;20230;-67
2021/03/08 05:26:40;;;;;;;18.77;12.13;;;-0.30;78.70;;;-0.84;78.12;98491.44;5035317;28;20782;-69
2021/03/08 05:29:09;;;;;;;18.95;10.88;;;-0.20;79.40;;;-0.77;78.15;98483.59;5038386;28;20973;-67
2021/03/08 05:31:41;;;;;;;19.90;12.33;;;-0.20;79.60;;;-0.73;78.28;98477.56;5036059;28;20287;-67
2021/03/08 05:34:13;;;;;;;20.90;12.60;;;-0.20;79.90;;;-0.74;78.68;98480.16;5034922;28;20704;-67
2021/03/08 05:36:44;;;;;;;21.63;12.73;;;-0.20;80.20;;;-0.76;79.12;98481.91;5035988;28;20633;-67
2021/03/08 05:39:14;;;;;;;21.50;12.93;;;-0.20;80.60;;;-0.73;78.85;98482.69;5036226;28;21259;-67
2021/03/08 05:41:55;;;;;;;21.63;12.43;;;-0.20;80.60;;;-0.72;78.07;98488.66;5036590;28;21189;-67
2021/03/08 05:44:29;;;;;;;20.20;11.73;;;-0.20;80.00;;;-0.74;77.14;98487.84;5036051;28;20640;-67
2021/03/08 05:47:19;;;;;;;20.60;12.97;;;-0.20;79.00;;;-0.89;76.52;98490.66;5037901;28;21056;-67
2021/03/08 05:50:10;;;;;;;21.88;12.52;;;-0.30;77.90;;;-0.95;76.87;98488.22;5034674;28;20643;-67
2021/03/08 05:53:20;;;;;;;21.03;12.43;;;-0.40;77.80;;;-1.00;76.51;98491.75;5038525;28;20252;-67
2021/03/08 05:56:26;;;;;;;20.30;12.40;;;-0.40;77.70;;;-1.07;76.49;98496.09;5035437;28;20667;-67
2021/03/08 05:59:14;;;;;;;21.43;12.63;;;-0.50;77.20;;;-1.10;77.38;98502.97;5024654;28;20280;-67
2021/03/08 06:02:05;;;;;;;19.47;12.10;;;-0.50;78.20;;;-1.09;77.90;98497.84;5038236;28;20696;-67
2021/03/08 06:05:35;;;;;;;22.92;14.05;;;-0.50;79.20;;;-1.07;78.78;98502.94;5031185;28;20650;-67
2021/03/08 06:08:53;;;;;;;20.35;12.23;;;-0.50;80.20;;;-0.99;79.39;98507.06;5035386;28;20217;-66
2021/03/08 06:11:25;;;;;;;18.27;11.77;;;-0.40;81.30;;;-0.94;79.42;98502.69;5036956;28;20949;-68
2021/03/08 06:13:58;;;;;;;20.33;12.37;;;-0.40;81.60;;;-0.80;79.26;98500.75;5035872;28;20672;-67
2021/03/08 06:16:31;;;;;;;19.87;13.13;;;-0.30;81.70;;;-0.61;78.87;98507.25;5033989;28;20640;-67
2021/03/08 06:19:00;;;;;;;19.33;12.10;;;-0.20;81.60;;;-0.46;78.73;98518.03;5032851;28;21593;-67
2021/03/08 06:21:31;;;;;;;20.43;12.77;;;-0.10;81.20;;;-0.32;78.39;98505.81;5036831;28;20735;-70
2021/03/08 06:24:00;;;;;;;24.17;13.30;;;0.10;81.20;;;-0.22;77.56;98515.00;5035580;28;20672;-70
2021/03/08 06:26:32;;;;;;;18.03;11.80;;;0.20;80.50;;;-0.09;77.21;98509.63;5037172;28;20720;-70
2021/03/08 06:29:00;;;;;;;20.60;12.30;;;0.30;79.70;;;0.06;77.42;98510.13;5032888;28;20645;-70
2021/03/08 06:31:28;;;;;;;21.63;13.53;;;0.50;79.80;;;0.26;76.83;98509.72;5033518;28;20745;-69
2021/03/08 06:33:58;;;;;;;21.27;13.50;;;0.60;79.40;;;0.39;76.59;98508.56;5032188;28;20640;-69
2021/03/08 06:36:27;;;;;;;21.03;14.20;;;0.80;79.30;;;0.58;76.42;98510.69;5032096;28;20786;-69
2021/03/08 06:38:55;;;;;;;26.30;14.73;;;0.90;78.90;;;0.76;75.59;98515.41;5031579;28;20795;-69
2021/03/08 06:41:22;;;;;;;19.57;13.63;;;1.10;78.40;;;0.82;75.23;98521.22;5034594;28;21118;-69
2021/03/08 06:43:51;;;;;;;25.23;16.60;;;1.10;77.40;;;0.88;74.53;98531.34;5033874;28;20694;-69
2021/03/08 06:46:19;;;;;;;22.97;14.53;;;1.10;76.80;;;0.97;74.16;98543.97;5033837;28;20644;-71
2021/03/08 06:48:47;;;;;;;22.30;14.03;;;1.20;76.10;;;1.10;73.51;98537.66;5037306;28;20733;-72
2021/03/08 06:51:16;;;;;;;22.37;14.60;;;1.40;75.10;;;1.18;72.14;98557.13;5033661;28;20639;-72
2021/03/08 06:53:45;;;;;;;22.30;14.77;;;1.50;74.30;;;1.33;73.95;98555.91;5033483;28;20740;-72
2021/03/08 06:56:18;;;;;;;28.80;15.57;;;1.60;75.30;;;1.53;74.37;98552.81;5033269;28;21282;-72
2021/03/08 06:59:04;;;;;;;22.73;15.90;;;1.80;76.10;;;1.67;73.66;98558.44;5036066;28;20706;-72
2021/03/08 07:01:33;;;;;;;22.47;14.50;;;1.90;75.50;;;1.80;72.75;98554.63;5037811;28;20653;-72
2021/03/08 07:04:17;;;;;;;23.57;14.53;;;2.10;74.90;;;2.01;74.00;98564.34;5038773;28;20651;-70
2021/03/08 07:06:59;;;;;;;26.93;15.20;;;2.20;75.60;;;2.09;72.84;98557.25;5035020;28;20663;-69
2021/03/08 07:09:28;;;;;;;26.67;16.07;;;2.30;74.30;;;2.33;72.40;98559.16;5037993;28;20784;-69
2021/03/08 07:12:11;;;;;;;24.50;15.00;;;2.60;75.60;;;2.49;72.01;98561.22;5040441;28;21337;-71
2021/03/08 07:14:41;;;;;;;24.83;15.27;;;2.70;73.70;;;2.68;72.12;98568.38;5049851;28;20632;-71
2021/03/08 07:17:32;;;;;;;25.70;14.73;;;2.90;73.70;;;2.84;72.10;98561.84;5046910;28;20628;-71
2021/03/08 07:20:03;;;;;;;19.47;15.10;;;3.10;74.00;;;3.03;71.06;98575.88;5050714;28;21015;-69
2021/03/08 07:22:41;;;;;;;20.77;14.30;;;3.20;73.00;;;3.10;70.08;98582.53;5045257;28;20715;-69
2021/03/08 07:25:18;;;;;;;28.30;17.90;;;3.30;71.40;;;3.24;70.89;98588.06;5050932;28;20754;-69
2021/03/08 07:27:48;;;;;;;43.50;24.73;;;3.40;72.10;;;3.47;70.32;98589.88;5050387;28;20777;-69
2021/03/08 07:30:21;;;;;;;24.27;15.90;;;3.60;71.70;;;3.70;70.43;98589.94;5040404;28;20659;-69
2021/03/08 07:32:58;;;;;;;27.47;16.50;;;3.80;72.20;;;3.84;70.58;98583.41;5049032;28;20643;-69
2021/03/08 07:35:39;;;;;;;30.53;18.10;;;4.00;71.50;;;3.97;69.51;98584.69;5045718;28;20651;-69
2021/03/08 07:38:09;;;;;;;25.10;17.17;;;4.20;70.60;;;4.08;68.94;98590.31;5044034;28;20640;-68
2021/03/08 07:40:40;;;;;;;26.70;18.47;;;4.30;69.60;;;4.21;68.10;98589.84;5047887;28;20679;-68
2021/03/08 07:43:07;;;;;;;27.83;18.00;;;4.40;69.50;;;4.35;68.96;98587.59;5039630;28;20644;-68
2021/03/08 07:45:41;;;;;;;27.73;17.90;;;4.50;69.70;;;4.58;69.58;98586.75;5044639;28;20653;-68
2021/03/08 07:48:12;;;;;;;23.57;15.73;;;4.70;69.80;;;4.81;69.31;98587.56;5045107;28;20984;-68
2021/03/08 07:50:41;;;;;;;26.93;16.90;;;4.90;69.80;;;5.04;67.94;98595.31;5040944;28;20732;-69
2021/03/08 07:53:31;;;;;;;22.63;15.80;;;5.10;69.70;;;5.23;68.27;98592.78;5043751;28;20629;-69
2021/03/08 07:56:02;;;;;;;23.00;14.63;;;5.30;70.10;;;5.43;67.85;98595.44;5040875;28;20632;-69
2021/03/08 07:58:32;;;;;;;27.80;19.90;;;5.50;69.40;;;5.62;68.36;98589.44;5039706;28;20724;-69
2021/03/08 08:01:04;;;;;;;21.90;14.93;;;5.70;69.30;;;5.85;68.00;98596.28;5033209;28;20657;-69
2021/03/08 08:03:33;;;;;;;21.30;15.17;;;5.90;69.20;;;6.03;68.00;98595.50;5042635;28;20961;-69
2021/03/08 08:06:03;;;;;;;23.10;16.90;;;6.10;68.50;;;6.18;66.29;98593.97;5045155;28;20633;-69
2021/03/08 08:08:34;;;;;;;23.63;16.70;;;6.30;68.00;;;6.35;66.65;98588.06;5036036;28;21044;-69
2021/03/08 08:11:05;;;;;;;30.13;19.47;;;6.40;67.80;;;6.47;67.18;98585.75;5041467;28;20715;-69
2021/03/08 08:13:37;;;;;;;26.20;19.03;;;6.60;67.60;;;6.62;66.33;98588.50;5042490;28;20632;-69
2021/03/08 08:16:08;;;;;;;26.10;20.47;;;6.70;67.10;;;6.75;65.31;98592.22;5038672;28;21185;-69
2021/03/08 08:18:40;;;;;;;31.27;21.10;;;6.80;65.60;;;6.86;65.29;98595.16;5049654;28;21364;-69
2021/03/08 08:21:14;;;;;;;28.37;20.70;;;6.90;65.10;;;7.00;64.63;98597.13;5043743;28;21270;-69
2021/03/08 08:23:44;;;;;;;29.67;20.30;;;7.10;64.50;;;7.02;63.15;98597.88;5047390;28;20649;-69
2021/03/08 08:26:19;;;;;;;27.57;19.30;;;7.10;62.90;;;7.03;62.85;98594.41;5042659;28;20636;-69
2021/03/08 08:28:55;;;;;;;26.10;19.40;;;7.20;62.40;;;7.00;64.05;98591.94;5049872;28;20629;-69
2021/03/08 08:31:23;;;;;;;24.80;20.00;;;7.10;62.50;;;7.01;64.50;98593.63;5048628;28;20628;-69
2021/03/08 08:33:52;;;;;;;23.73;18.17;;;7.20;62.90;;;7.15;65.33;98590.31;5043531;28;20649;-69
2021/03/08 08:36:24;;;;;;;24.47;18.03;;;7.30;64.40;;;7.36;64.36;98589.28;5046001;28;21106;-69
2021/03/08 08:39:15;;;;;;;25.53;19.70;;;7.40;63.90;;;7.53;63.78;98587.59;5041857;28;20644;-69
2021/03/08 08:41:43;;;;;;;24.53;18.97;;;7.60;63.50;;;7.63;65.12;98586.19;5042373;28;20664;-69
2021/03/08 08:44:34;;;;;;;23.93;19.47;;;7.70;63.60;;;7.76;63.71;98589.06;5050963;28;20660;-69
2021/03/08 08:47:30;;;;;;;25.07;17.80;;;7.90;62.90;;;7.82;62.85;98586.13;5042300;28;20644;-69
2021/03/08 08:50:04;;;;;;;21.00;16.27;;;7.90;61.20;;;7.91;61.54;98580.47;5041002;28;20636;-69
2021/03/08 08:52:52;;;;;;;24.30;19.03;;;8.00;60.80;;;8.07;65.02;98582.25;5049047;28;20669;-69
2021/03/08 08:55:24;;;;;;;23.13;18.07;;;8.20;62.90;;;8.11;64.23;98584.63;5043293;28;20632;-69
2021/03/08 08:58:24;;;;;;;24.50;17.23;;;8.30;62.60;;;8.13;64.92;98581.97;5044626;28;20766;-69
2021/03/08 09:04:19;;;;;;;23.50;16.80;;;8.30;63.50;;;8.36;64.81;98581.63;5044643;28;22427;-70
2021/03/08 09:06:55;;;;;;;23.63;17.07;;;8.40;63.90;;;8.51;65.37;98582.53;5045512;28;20652;-70
2021/03/08 09:09:57;;;;;;;23.87;17.17;;;8.60;64.10;;;8.69;63.99;98584.16;5034532;28;21202;-70
2021/03/08 09:12:43;;;;;;;19.13;14.40;;;8.70;62.90;;;8.88;62.56;98581.41;5045643;28;20728;-71
2021/03/08 09:15:16;;;;;;;18.93;14.50;;;8.90;62.10;;;9.01;61.53;98584.09;5049405;28;20639;-70
2021/03/08 09:17:46;;;;;;;17.70;14.30;;;9.00;59.70;;;9.07;61.30;98580.31;5040018;28;20652;-70
2021/03/08 09:20:29;;;;;;;19.00;14.50;;;9.10;59.50;;;8.91;59.38;98581.25;5046931;28;20742;-69
2021/03/08 09:22:58;;;;;;;17.10;13.93;;;9.00;57.10;;;8.87;58.61;98583.19;5035953;28;20643;-69
2021/03/08 09:25:28;;;;;;;15.10;13.33;;;9.00;57.40;;;8.90;59.62;98589.94;5040819;28;21210;-69
2021/03/08 09:28:10;;;;;;;19.00;14.93;;;8.90;58.20;;;8.91;60.42;98582.06;5048726;28;20647;-69
2021/03/08 09:30:42;;;;;;;19.27;13.93;;;8.90;58.10;;;9.05;60.02;98576.94;5048261;28;20686;-69
2021/03/08 09:33:12;;;;;;;17.27;14.50;;;9.10;58.80;;;9.07;61.25;98575.94;5050530;28;20628;-69
2021/03/08 09:35:44;;;;;;;17.37;14.27;;;9.10;58.60;;;9.29;61.00;98576.47;5047787;28;20674;-69
2021/03/08 09:38:15;;;;;;;19.03;14.23;;;9.30;59.10;;;9.44;61.20;98581.66;5050647;28;20641;-69
2021/03/08 09:40:45;;;;;;;17.30;13.93;;;9.40;59.30;;;9.50;59.79;98580.44;5048551;28;20659;-69
2021/03/08 09:43:25;;;;;;;15.63;13.50;;;9.50;57.50;;;9.56;58.64;98582.72;5047583;28;20732;-69
2021/03/08 09:45:57;;;;;;;16.10;13.47;;;9.60;57.00;;;9.56;58.38;98578.38;5046413;28;21038;-69
2021/03/08 09:48:26;;;;;;;19.13;14.50;;;9.60;55.90;;;9.58;59.10;98580.88;5046275;28;20644;-69
2021/03/08 09:51:06;;;;;;;19.57;13.90;;;9.60;57.00;;;9.61;59.23;98572.91;5040520;28;20640;-69
2021/03/08 09:53:36;;;;;;;17.43;14.07;;;9.60;57.10;;;9.75;60.01;98575.53;5049937;28;20637;-69
2021/03/08 09:56:07;;;;;;;18.50;14.50;;;9.80;57.40;;;9.86;60.47;98577.44;5050049;28;20663;-69
2021/03/08 09:58:36;;;;;;;17.67;12.90;;;9.90;58.30;;;10.03;60.62;98573.91;5051205;28;20616;-69
2021/03/08 10:01:13;;;;;;;14.80;12.57;;;10.10;57.80;;;10.15;58.22;98570.53;5044185;28;20659;-69
2021/03/08 10:03:40;;;;;;;14.97;12.13;;;10.20;55.80;;;10.01;55.30;98567.91;5043221;28;20679;-69
2021/03/08 10:06:22;;;;;;;15.67;12.90;;;10.10;53.00;;;9.82;56.15;98564.69;5045345;28;20632;-69
2021/03/08 10:08:49;;;;;;;17.07;13.27;;;9.90;53.90;;;9.91;56.42;98566.75;5052704;28;20625;-69
2021/03/08 10:11:22;;;;;;;16.73;12.80;;;9.90;54.70;;;9.99;56.88;98575.81;5051477;28;20640;-69
2021/03/08 10:13:50;;;;;;;15.70;13.40;;;10.00;53.90;;;10.10;57.75;98565.63;5050624;28;20639;-69
2021/03/08 10:16:23;;;;;;;13.70;11.57;;;10.10;54.90;;;10.28;57.06;98567.13;5051903;28;20621;-69
2021/03/08 10:18:52;;;;;;;12.23;10.33;;;10.20;53.70;;;10.19;54.68;98561.63;5046934;28;20628;-69
2021/03/08 10:21:21;;;;;;;12.47;10.40;;;10.20;52.50;;;10.00;54.89;98566.25;5048351;28;21050;-69
2021/03/08 10:23:49;;;;;;;13.87;11.00;;;10.00;50.70;;;10.14;55.92;98571.50;5045696;28;21165;-69
2021/03/08 10:26:19;;;;;;;13.17;10.70;;;10.10;53.10;;;10.29;55.32;98555.78;5047900;28;20625;-72
2021/03/08 10:28:49;;;;;;;12.60;10.00;;;10.30;51.80;;;10.41;53.97;98563.69;5044310;28;20636;-70
2021/03/08 10:31:20;;;;;;;26.20;17.13;;;10.40;51.10;;;10.57;53.21;98566.22;5049242;28;20698;-70
2021/03/08 10:33:52;;;;;;;11.80;8.07;;;10.50;50.40;;;10.81;51.65;98562.97;5048802;28;20635;-70
2021/03/08 10:36:25;;;;;;;9.03;8.03;;;10.70;48.80;;;11.00;50.76;98556.47;5048040;28;20667;-71
2021/03/08 10:38:55;;;;;;;10.70;9.60;;;10.90;48.00;;;10.95;51.52;98561.16;5049429;28;21402;-72
2021/03/08 10:41:26;;;;;;;12.97;9.20;;;11.00;47.80;;;10.92;51.31;98565.75;5049895;28;20645;-70
2021/03/08 10:43:55;;;;;;;10.63;8.60;;;11.00;47.40;;;10.91;52.47;98557.06;5046459;28;20621;-69